sensor_id;sensor_type;location;lat;lon;timestamp;pressure;altitude;pressure_sealevel;temperature;humidity
75627;BME280;67372;49.404;11.034;2024-03-17T00:02:05;98885.78;;;6.41;76.06
75627;BME280;67372;49.404;11.034;2024-03-17T00:04:31;98886.97;;;6.31;76.70
75627;BME280;67372;49.404;11.034;2024-03-17T00:06:56;98894.97;;;6.23;76.93
75627;BME280;67372;49.404;11.034;2024-03-17T00:09:22;98894.97;;;6.14;77.46
75627;BME280;67372;49.404;11.034;2024-03-17T00:11:47;98898.47;;;6.07;78.01
75627;BME280;67372;49.404;11.034;2024-03-17T00:14:13;98893.88;;;6.01;78.36
75627;BME280;67372;49.404;11.034;2024-03-17T00:16:38;98889.28;;;5.95;78.22
75627;BME280;67372;49.404;11.034;2024-03-17T00:19:03;98895.03;;;5.90;79.45
75627;BME280;67372;49.404;11.034;2024-03-17T00:21:29;98893.72;;;5.86;78.79
75627;BME280;67372;49.404;11.034;2024-03-17T00:23:54;98898.69;;;5.81;78.82
75627;BME280;67372;49.404;11.034;2024-03-17T00:26:20;98891.25;;;5.76;78.87
75627;BME280;67372;49.404;11.034;2024-03-17T00:28:46;98906.00;;;5.71;80.15
75627;BME280;67372;49.404;11.034;2024-03-17T00:31:12;98908.47;;;5.64;80.56
75627;BME280;67372;49.404;11.034;2024-03-17T00:33:37;98897.56;;;5.59;81.06
75627;BME280;67372;49.404;11.034;2024-03-17T00:36:03;98905.84;;;5.56;80.89
75627;BME280;67372;49.404;11.034;2024-03-17T00:38:28;98907.81;;;5.54;80.63
75627;BME280;67372;49.404;11.034;2024-03-17T00:40:54;98897.41;;;5.52;80.57
75627;BME280;67372;49.404;11.034;2024-03-17T00:43:19;98899.41;;;5.50;81.06
75627;BME280;67372;49.404;11.034;2024-03-17T00:45:51;98899.91;;;5.46;81.05
75627;BME280;67372;49.404;11.034;2024-03-17T00:48:17;98898.56;;;5.42;81.07
75627;BME280;67372;49.404;11.034;2024-03-17T00:50:42;98895.44;;;5.46;81.27
75627;BME280;67372;49.404;11.034;2024-03-17T00:53:08;98897.41;;;5.52;81.23
75627;BME280;67372;49.404;11.034;2024-03-17T00:55:33;98888.78;;;5.59;81.65
75627;BME280;67372;49.404;11.034;2024-03-17T00:57:59;98895.06;;;5.66;81.44
75627;BME280;67372;49.404;11.034;2024-03-17T01:00:24;98895.41;;;5.71;81.58
75627;BME280;67372;49.404;11.034;2024-03-17T01:02:49;98903.66;;;5.76;81.82
75627;BME280;67372;49.404;11.034;2024-03-17T01:05:15;98896.38;;;5.78;81.61
75627;BME280;67372;49.404;11.034;2024-03-17T01:07:40;98894.03;;;5.83;81.17
75627;BME280;67372;49.404;11.034;2024-03-17T01:10:06;98892.53;;;5.89;81.06
75627;BME280;67372;49.404;11.034;2024-03-17T01:12:32;98890.25;;;5.94;81.24
75627;BME280;67372;49.404;11.034;2024-03-17T01:14:57;98888.75;;;5.99;80.64
75627;BME280;67372;49.404;11.034;2024-03-17T01:17:22;98889.88;;;6.05;80.91
75627;BME280;67372;49.404;11.034;2024-03-17T01:19:48;98889.53;;;6.08;80.92
75627;BME280;67372;49.404;11.034;2024-03-17T01:22:13;98894.00;;;6.07;80.63
75627;BME280;67372;49.404;11.034;2024-03-17T01:24:39;98889.38;;;6.09;80.80
75627;BME280;67372;49.404;11.034;2024-03-17T01:27:04;98884.91;;;6.10;80.96
75627;BME280;67372;49.404;11.034;2024-03-17T01:29:29;98879.94;;;6.07;80.67
75627;BME280;67372;49.404;11.034;2024-03-17T01:31:55;98884.59;;;6.05;80.93
75627;BME280;67372;49.404;11.034;2024-03-17T01:34:22;98868.06;;;6.03;80.94
75627;BME280;67372;49.404;11.034;2024-03-17T01:36:47;98863.59;;;6.03;80.97
75627;BME280;67372;49.404;11.034;2024-03-17T01:39:13;98864.06;;;6.07;81.54
75627;BME280;67372;49.404;11.034;2024-03-17T01:41:39;98861.88;;;6.10;81.35
75627;BME280;67372;49.404;11.034;2024-03-17T01:44:05;98867.66;;;6.14;80.94
75627;BME280;67372;49.404;11.034;2024-03-17T01:46:30;98859.22;;;6.19;80.67
75627;BME280;67372;49.404;11.034;2024-03-17T01:48:56;98855.09;;;6.16;81.21
75627;BME280;67372;49.404;11.034;2024-03-17T01:51:22;98856.25;;;6.13;81.21
75627;BME280;67372;49.404;11.034;2024-03-17T01:53:47;98854.59;;;6.12;81.36
75627;BME280;67372;49.404;11.034;2024-03-17T01:56:14;98847.16;;;6.08;81.32
75627;BME280;67372;49.404;11.034;2024-03-17T01:58:44;98848.03;;;6.00;81.29
75627;BME280;67372;49.404;11.034;2024-03-17T02:01:09;98853.38;;;5.92;81.27
75627;BME280;67372;49.404;11.034;2024-03-17T02:03:35;98851.84;;;5.90;81.46
75627;BME280;67372;49.404;11.034;2024-03-17T02:06:00;98839.44;;;5.90;81.47
75627;BME280;67372;49.404;11.034;2024-03-17T02:08:26;98838.44;;;5.91;81.44
75627;BME280;67372;49.404;11.034;2024-03-17T02:10:52;98840.13;;;5.92;81.55
75627;BME280;67372;49.404;11.034;2024-03-17T02:13:19;98837.63;;;5.91;81.56
75627;BME280;67372;49.404;11.034;2024-03-17T02:15:44;98826.22;;;5.90;81.03
75627;BME280;67372;49.404;11.034;2024-03-17T02:18:10;98817.59;;;5.88;81.06
75627;BME280;67372;49.404;11.034;2024-03-17T02:20:35;98826.22;;;5.82;81.50
75627;BME280;67372;49.404;11.034;2024-03-17T02:23:00;98826.91;;;5.76;80.97
75627;BME280;67372;49.404;11.034;2024-03-17T02:25:26;98827.75;;;5.68;81.17
75627;BME280;67372;49.404;11.034;2024-03-17T02:27:51;98828.09;;;5.57;80.70
75627;BME280;67372;49.404;11.034;2024-03-17T02:30:17;98817.06;;;5.45;80.73
75627;BME280;67372;49.404;11.034;2024-03-17T02:32:42;98818.88;;;5.37;80.97
75627;BME280;67372;49.404;11.034;2024-03-17T02:35:08;98824.19;;;5.29;81.05
75627;BME280;67372;49.404;11.034;2024-03-17T02:37:33;98825.84;;;5.21;81.05
75627;BME280;67372;49.404;11.034;2024-03-17T02:39:58;98836.59;;;5.12;81.86
75627;BME280;67372;49.404;11.034;2024-03-17T02:42:24;98827.19;;;5.01;82.35
75627;BME280;67372;49.404;11.034;2024-03-17T02:44:49;98831.47;;;4.94;82.64
75627;BME280;67372;49.404;11.034;2024-03-17T02:47:15;98837.25;;;4.89;82.82
75627;BME280;67372;49.404;11.034;2024-03-17T02:49:40;98834.09;;;4.86;82.25
75627;BME280;67372;49.404;11.034;2024-03-17T02:52:07;98828.16;;;4.84;83.35
75627;BME280;67372;49.404;11.034;2024-03-17T02:54:33;98827.16;;;4.85;83.06
75627;BME280;67372;49.404;11.034;2024-03-17T02:56:58;98833.13;;;4.87;82.40
75627;BME280;67372;49.404;11.034;2024-03-17T02:59:24;98825.84;;;4.89;83.13
75627;BME280;67372;49.404;11.034;2024-03-17T03:01:50;98827.50;;;4.90;82.74
75627;BME280;67372;49.404;11.034;2024-03-17T03:04:16;98830.81;;;4.84;83.38
75627;BME280;67372;49.404;11.034;2024-03-17T03:06:41;98832.47;;;4.77;84.34
75627;BME280;67372;49.404;11.034;2024-03-17T03:09:07;98833.75;;;4.73;85.85
75627;BME280;67372;49.404;11.034;2024-03-17T03:11:32;98830.28;;;4.64;84.90
75627;BME280;67372;49.404;11.034;2024-03-17T03:13:58;98831.09;;;4.65;84.73
75627;BME280;67372;49.404;11.034;2024-03-17T03:16:23;98831.28;;;4.63;84.83
75627;BME280;67372;49.404;11.034;2024-03-17T03:18:50;98841.19;;;4.61;84.81
75627;BME280;67372;49.404;11.034;2024-03-17T03:21:15;98840.34;;;4.60;84.44
75627;BME280;67372;49.404;11.034;2024-03-17T03:23:41;98842.16;;;4.60;85.03
75627;BME280;67372;49.404;11.034;2024-03-17T03:26:06;98843.00;;;4.60;85.24
75627;BME280;67372;49.404;11.034;2024-03-17T03:28:32;98838.88;;;4.58;85.79
75627;BME280;67372;49.404;11.034;2024-03-17T03:30:58;98839.19;;;4.55;85.64
75627;BME280;67372;49.404;11.034;2024-03-17T03:33:23;98835.88;;;4.53;85.54
75627;BME280;67372;49.404;11.034;2024-03-17T03:35:49;98838.84;;;4.50;85.58
75627;BME280;67372;49.404;11.034;2024-03-17T03:38:15;98832.59;;;4.51;85.59
75627;BME280;67372;49.404;11.034;2024-03-17T03:40:41;98843.16;;;4.51;85.56
75627;BME280;67372;49.404;11.034;2024-03-17T03:43:06;98839.53;;;4.52;84.89
75627;BME280;67372;49.404;11.034;2024-03-17T03:45:33;98841.84;;;4.55;85.82
75627;BME280;67372;49.404;11.034;2024-03-17T03:47:58;98842.00;;;4.53;86.12
75627;BME280;67372;49.404;11.034;2024-03-17T03:50:24;98840.19;;;4.54;86.12
75627;BME280;67372;49.404;11.034;2024-03-17T03:52:49;98840.34;;;4.60;86.25
75627;BME280;67372;49.404;11.034;2024-03-17T03:55:16;98835.41;;;4.66;87.37
75627;BME280;67372;49.404;11.034;2024-03-17T03:57:42;98835.41;;;4.66;86.79
75627;BME280;67372;49.404;11.034;2024-03-17T04:00:08;98832.44;;;4.69;86.49
75627;BME280;67372;49.404;11.034;2024-03-17T04:02:33;98835.72;;;4.71;86.74
75627;BME280;67372;49.404;11.034;2024-03-17T04:04:59;98842.00;;;4.70;89.48
75627;BME280;67372;49.404;11.034;2024-03-17T04:07:25;98839.38;;;4.70;87.76
75627;BME280;67372;49.404;11.034;2024-03-17T04:09:50;98836.72;;;4.70;89.16
75627;BME280;67372;49.404;11.034;2024-03-17T04:12:15;98841.00;;;4.71;88.75
75627;BME280;67372;49.404;11.034;2024-03-17T04:14:41;98839.88;;;4.73;87.85
75627;BME280;67372;49.404;11.034;2024-03-17T04:17:06;98834.59;;;4.73;88.83
75627;BME280;67372;49.404;11.034;2024-03-17T04:19:32;98830.47;;;4.79;87.65
75627;BME280;67372;49.404;11.034;2024-03-17T04:21:57;98824.84;;;4.82;88.41
75627;BME280;67372;49.404;11.034;2024-03-17T04:24:22;98828.81;;;4.86;87.03
75627;BME280;67372;49.404;11.034;2024-03-17T04:26:48;98832.63;;;4.91;87.28
75627;BME280;67372;49.404;11.034;2024-03-17T04:29:13;98831.00;;;4.99;86.54
75627;BME280;67372;49.404;11.034;2024-03-17T04:31:39;98833.44;;;5.08;86.84
75627;BME280;67372;49.404;11.034;2024-03-17T04:34:04;98840.72;;;5.14;86.32
75627;BME280;67372;49.404;11.034;2024-03-17T04:36:30;98831.78;;;5.15;86.65
75627;BME280;67372;49.404;11.034;2024-03-17T04:38:55;98840.53;;;5.16;86.55
75627;BME280;67372;49.404;11.034;2024-03-17T04:41:21;98832.28;;;5.11;86.57
75627;BME280;67372;49.404;11.034;2024-03-17T04:43:46;98835.75;;;5.11;86.37
75627;BME280;67372;49.404;11.034;2024-03-17T04:46:11;98838.06;;;5.14;86.41
75627;BME280;67372;49.404;11.034;2024-03-17T04:48:37;98834.59;;;5.14;86.77
75627;BME280;67372;49.404;11.034;2024-03-17T04:51:03;98842.03;;;5.18;86.58
75627;BME280;67372;49.404;11.034;2024-03-17T04:53:29;98844.50;;;5.20;86.63
75627;BME280;67372;49.404;11.034;2024-03-17T04:56:02;98833.63;;;5.23;85.97
75627;BME280;67372;49.404;11.034;2024-03-17T04:58:28;98836.28;;;5.23;86.79
75627;BME280;67372;49.404;11.034;2024-03-17T05:00:53;98831.16;;;5.21;86.57
75627;BME280;67372;49.404;11.034;2024-03-17T05:03:19;98833.09;;;5.19;86.89
75627;BME280;67372;49.404;11.034;2024-03-17T05:05:44;98829.97;;;5.16;87.63
75627;BME280;67372;49.404;11.034;2024-03-17T05:08:09;98835.59;;;5.13;87.84
75627;BME280;67372;49.404;11.034;2024-03-17T05:10:35;98845.84;;;5.08;86.73
75627;BME280;67372;49.404;11.034;2024-03-17T05:13:00;98840.38;;;5.09;86.70
75627;BME280;67372;49.404;11.034;2024-03-17T05:15:26;98842.53;;;5.14;87.14
75627;BME280;67372;49.404;11.034;2024-03-17T05:17:51;98838.25;;;5.13;87.34
75627;BME280;67372;49.404;11.034;2024-03-17T05:20:16;98837.41;;;5.12;86.80
75627;BME280;67372;49.404;11.034;2024-03-17T05:22:42;98844.84;;;5.17;86.88
75627;BME280;67372;49.404;11.034;2024-03-17T05:25:07;98854.78;;;5.23;86.31
75627;BME280;67372;49.404;11.034;2024-03-17T05:27:33;98848.31;;;5.26;86.75
75627;BME280;67372;49.404;11.034;2024-03-17T05:29:58;98846.69;;;5.24;86.68
75627;BME280;67372;49.404;11.034;2024-03-17T05:32:24;98842.56;;;5.22;87.43
75627;BME280;67372;49.404;11.034;2024-03-17T05:34:49;98848.84;;;5.21;86.46
75627;BME280;67372;49.404;11.034;2024-03-17T05:37:15;98859.41;;;5.21;86.68
75627;BME280;67372;49.404;11.034;2024-03-17T05:39:40;98853.31;;;5.20;87.81
75627;BME280;67372;49.404;11.034;2024-03-17T05:42:06;98857.25;;;5.16;88.13
75627;BME280;67372;49.404;11.034;2024-03-17T05:44:31;98861.53;;;5.17;87.18
75627;BME280;67372;49.404;11.034;2024-03-17T05:46:57;98862.19;;;5.19;86.99
75627;BME280;67372;49.404;11.034;2024-03-17T05:49:22;98864.53;;;5.22;87.43
75627;BME280;67372;49.404;11.034;2024-03-17T05:51:47;98858.25;;;5.23;86.97
75627;BME280;67372;49.404;11.034;2024-03-17T05:54:13;98857.91;;;5.27;86.67
75627;BME280;67372;49.404;11.034;2024-03-17T05:56:38;98868.00;;;5.31;86.87
75627;BME280;67372;49.404;11.034;2024-03-17T05:59:04;98871.47;;;5.32;86.81
75627;BME280;67372;49.404;11.034;2024-03-17T06:01:29;98874.44;;;5.37;86.86
75627;BME280;67372;49.404;11.034;2024-03-17T06:03:54;98867.16;;;5.39;87.32
75627;BME280;67372;49.404;11.034;2024-03-17T06:06:20;98873.63;;;5.44;86.57
75627;BME280;67372;49.404;11.034;2024-03-17T06:08:45;98868.81;;;5.48;86.71
75627;BME280;67372;49.404;11.034;2024-03-17T06:11:11;98866.66;;;5.51;87.22
75627;BME280;67372;49.404;11.034;2024-03-17T06:13:36;98866.81;;;5.50;87.97
75627;BME280;67372;49.404;11.034;2024-03-17T06:16:02;98865.00;;;5.50;87.16
75627;BME280;67372;49.404;11.034;2024-03-17T06:18:28;98854.56;;;5.57;87.20
75627;BME280;67372;49.404;11.034;2024-03-17T06:20:54;98864.63;;;5.62;87.28
75627;BME280;67372;49.404;11.034;2024-03-17T06:23:19;98869.25;;;5.68;87.53
75627;BME280;67372;49.404;11.034;2024-03-17T06:25:46;98871.91;;;5.76;86.59
75627;BME280;67372;49.404;11.034;2024-03-17T06:28:13;98862.94;;;5.85;86.75
75627;BME280;67372;49.404;11.034;2024-03-17T06:30:40;98865.09;;;5.90;85.96
75627;BME280;67372;49.404;11.034;2024-03-17T06:33:06;98856.16;;;5.99;86.12
75627;BME280;67372;49.404;11.034;2024-03-17T06:35:31;98858.59;;;6.08;85.60
75627;BME280;67372;49.404;11.034;2024-03-17T06:38:00;98859.56;;;6.15;85.72
75627;BME280;67372;49.404;11.034;2024-03-17T06:40:25;98857.72;;;6.24;85.67
75627;BME280;67372;49.404;11.034;2024-03-17T06:42:51;98852.34;;;6.32;85.16
75627;BME280;67372;49.404;11.034;2024-03-17T06:45:16;98862.75;;;6.42;85.05
75627;BME280;67372;49.404;11.034;2024-03-17T06:47:41;98868.50;;;6.54;84.89
75627;BME280;67372;49.404;11.034;2024-03-17T06:50:08;98869.97;;;6.56;84.13
75627;BME280;67372;49.404;11.034;2024-03-17T06:52:33;98863.47;;;6.67;84.93
75627;BME280;67372;49.404;11.034;2024-03-17T06:54:59;98859.22;;;6.81;84.10
75627;BME280;67372;49.404;11.034;2024-03-17T06:57:25;98848.84;;;6.94;83.83
75627;BME280;67372;49.404;11.034;2024-03-17T06:59:50;98850.78;;;7.00;83.85
75627;BME280;67372;49.404;11.034;2024-03-17T07:02:16;98846.91;;;7.11;83.08
75627;BME280;67372;49.404;11.034;2024-03-17T07:04:41;98847.66;;;7.19;82.97
75627;BME280;67372;49.404;11.034;2024-03-17T07:07:07;98852.78;;;7.21;82.42
75627;BME280;67372;49.404;11.034;2024-03-17T07:09:32;98848.78;;;7.25;82.74
75627;BME280;67372;49.404;11.034;2024-03-17T07:11:57;98858.16;;;7.35;82.60
75627;BME280;67372;49.404;11.034;2024-03-17T07:14:23;98851.09;;;7.43;82.32
75627;BME280;67372;49.404;11.034;2024-03-17T07:16:48;98856.22;;;7.44;81.61
75627;BME280;67372;49.404;11.034;2024-03-17T07:19:14;98849.56;;;7.48;81.73
75627;BME280;67372;49.404;11.034;2024-03-17T07:21:39;98843.00;;;7.59;81.48
75627;BME280;67372;49.404;11.034;2024-03-17T07:24:05;98839.44;;;7.66;81.34
75627;BME280;67372;49.404;11.034;2024-03-17T07:26:30;98842.81;;;7.75;81.35
75627;BME280;67372;49.404;11.034;2024-03-17T07:28:56;98832.31;;;7.82;80.84
75627;BME280;67372;49.404;11.034;2024-03-17T07:31:21;98845.03;;;7.86;80.37
75627;BME280;67372;49.404;11.034;2024-03-17T07:33:47;98844.03;;;7.87;80.05
75627;BME280;67372;49.404;11.034;2024-03-17T07:36:12;98857.47;;;8.00;80.64
75627;BME280;67372;49.404;11.034;2024-03-17T07:38:38;98852.09;;;8.09;80.00
75627;BME280;67372;49.404;11.034;2024-03-17T07:41:05;98848.13;;;8.19;80.00
75627;BME280;67372;49.404;11.034;2024-03-17T07:43:32;98846.66;;;8.31;79.52
75627;BME280;67372;49.404;11.034;2024-03-17T07:46:08;98834.16;;;8.47;80.11
75627;BME280;67372;49.404;11.034;2024-03-17T07:48:35;98836.78;;;8.61;79.37
75627;BME280;67372;49.404;11.034;2024-03-17T07:51:03;98828.81;;;8.61;76.44
75627;BME280;67372;49.404;11.034;2024-03-17T07:53:29;98835.66;;;8.71;78.75
75627;BME280;67372;49.404;11.034;2024-03-17T07:56:14;98831.88;;;8.80;77.78
75627;BME280;67372;49.404;11.034;2024-03-17T07:58:42;98828.25;;;8.87;77.17
75627;BME280;67372;49.404;11.034;2024-03-17T08:01:08;98831.06;;;9.01;78.02
75627;BME280;67372;49.404;11.034;2024-03-17T08:03:36;98827.50;;;9.15;76.37
75627;BME280;67372;49.404;11.034;2024-03-17T08:06:02;98830.91;;;9.30;76.52
75627;BME280;67372;49.404;11.034;2024-03-17T08:08:29;98831.19;;;9.42;76.40
75627;BME280;67372;49.404;11.034;2024-03-17T08:10:54;98816.38;;;9.61;75.61
75627;BME280;67372;49.404;11.034;2024-03-17T08:13:21;98814.25;;;9.77;74.25
75627;BME280;67372;49.404;11.034;2024-03-17T08:15:55;98822.28;;;9.84;71.19
75627;BME280;67372;49.404;11.034;2024-03-17T08:18:21;98816.75;;;9.85;72.84
75627;BME280;67372;49.404;11.034;2024-03-17T08:20:47;98812.84;;;9.88;71.97
75627;BME280;67372;49.404;11.034;2024-03-17T08:23:13;98819.16;;;9.74;72.20
75627;BME280;67372;49.404;11.034;2024-03-17T08:25:38;98815.59;;;9.67;72.29
75627;BME280;67372;49.404;11.034;2024-03-17T08:28:04;98811.06;;;9.61;72.54
75627;BME280;67372;49.404;11.034;2024-03-17T08:30:30;98813.75;;;9.67;73.30
75627;BME280;67372;49.404;11.034;2024-03-17T08:32:56;98813.81;;;9.74;72.50
75627;BME280;67372;49.404;11.034;2024-03-17T08:35:22;98808.88;;;9.71;71.05
75627;BME280;67372;49.404;11.034;2024-03-17T08:37:48;98804.38;;;9.71;71.55
75627;BME280;67372;49.404;11.034;2024-03-17T08:40:14;98805.00;;;9.73;70.57
75627;BME280;67372;49.404;11.034;2024-03-17T08:42:39;98798.66;;;9.74;71.86
75627;BME280;67372;49.404;11.034;2024-03-17T08:45:05;98799.28;;;9.76;72.90
75627;BME280;67372;49.404;11.034;2024-03-17T08:47:31;98793.94;;;9.76;71.58
75627;BME280;67372;49.404;11.034;2024-03-17T08:49:57;98798.66;;;9.74;70.08
75627;BME280;67372;49.404;11.034;2024-03-17T08:52:22;98795.78;;;9.76;69.61
75627;BME280;67372;49.404;11.034;2024-03-17T08:54:48;98800.09;;;9.77;69.36
75627;BME280;67372;49.404;11.034;2024-03-17T08:57:14;98795.81;;;9.82;71.23
75627;BME280;67372;49.404;11.034;2024-03-17T08:59:39;98795.50;;;9.99;71.73
75627;BME280;67372;49.404;11.034;2024-03-17T09:02:05;98797.41;;;10.11;70.44
75627;BME280;67372;49.404;11.034;2024-03-17T09:04:36;98799.75;;;10.21;70.11
75627;BME280;67372;49.404;11.034;2024-03-17T09:07:02;98795.88;;;10.30;70.12
75627;BME280;67372;49.404;11.034;2024-03-17T09:09:27;98794.84;;;10.38;69.24
75627;BME280;67372;49.404;11.034;2024-03-17T09:11:53;98797.78;;;10.43;67.40
75627;BME280;67372;49.404;11.034;2024-03-17T09:14:18;98798.19;;;10.53;68.71
75627;BME280;67372;49.404;11.034;2024-03-17T09:16:44;98791.44;;;10.64;68.25
75627;BME280;67372;49.404;11.034;2024-03-17T09:19:09;98789.63;;;10.77;68.06
75627;BME280;67372;49.404;11.034;2024-03-17T09:21:34;98788.41;;;10.80;67.19
75627;BME280;67372;49.404;11.034;2024-03-17T09:24:00;98797.22;;;10.81;65.03
75627;BME280;67372;49.404;11.034;2024-03-17T09:26:25;98801.53;;;10.88;67.25
75627;BME280;67372;49.404;11.034;2024-03-17T09:28:51;98798.91;;;11.01;66.38
75627;BME280;67372;49.404;11.034;2024-03-17T09:31:16;98792.97;;;11.13;64.81
75627;BME280;67372;49.404;11.034;2024-03-17T09:33:42;98787.59;;;11.32;64.37
75627;BME280;67372;49.404;11.034;2024-03-17T09:36:09;98789.25;;;11.60;64.63
75627;BME280;67372;49.404;11.034;2024-03-17T09:38:35;98774.81;;;11.81;62.83
75627;BME280;67372;49.404;11.034;2024-03-17T09:41:01;98777.22;;;12.02;60.42
75627;BME280;67372;49.404;11.034;2024-03-17T09:43:28;98781.22;;;12.31;60.17
75627;BME280;67372;49.404;11.034;2024-03-17T09:45:54;98771.09;;;12.40;59.00
75627;BME280;67372;49.404;11.034;2024-03-17T09:48:20;98768.41;;;12.40;60.24
75627;BME280;67372;49.404;11.034;2024-03-17T09:51:06;98768.47;;;12.33;58.08
75627;BME280;67372;49.404;11.034;2024-03-17T09:53:33;98768.47;;;12.33;60.51
75627;BME280;67372;49.404;11.034;2024-03-17T09:56:10;98761.25;;;12.34;59.39
75627;BME280;67372;49.404;11.034;2024-03-17T09:58:36;98762.25;;;12.39;58.91
75627;BME280;67372;49.404;11.034;2024-03-17T10:01:01;98755.09;;;12.26;58.27
75627;BME280;67372;49.404;11.034;2024-03-17T10:03:49;98760.75;;;12.05;52.06
75627;BME280;67372;49.404;11.034;2024-03-17T10:06:16;98755.06;;;11.88;54.11
75627;BME280;67372;49.404;11.034;2024-03-17T10:08:45;98753.00;;;11.90;55.11
75627;BME280;67372;49.404;11.034;2024-03-17T10:11:11;98763.63;;;12.04;57.25
75627;BME280;67372;49.404;11.034;2024-03-17T10:13:37;98759.66;;;12.19;58.13
75627;BME280;67372;49.404;11.034;2024-03-17T10:16:02;98765.38;;;12.29;58.25
75627;BME280;67372;49.404;11.034;2024-03-17T10:18:28;98763.84;;;12.47;57.90
75627;BME280;67372;49.404;11.034;2024-03-17T10:20:53;98757.81;;;12.58;56.55
75627;BME280;67372;49.404;11.034;2024-03-17T10:23:19;98753.97;;;12.79;55.43
75627;BME280;67372;49.404;11.034;2024-03-17T10:25:44;98754.59;;;12.81;54.04
75627;BME280;67372;49.404;11.034;2024-03-17T10:28:11;98751.03;;;12.55;53.13
75627;BME280;67372;49.404;11.034;2024-03-17T10:30:37;98749.13;;;12.31;52.88
75627;BME280;67372;49.404;11.034;2024-03-17T10:33:02;98749.53;;;12.28;55.53
75627;BME280;67372;49.404;11.034;2024-03-17T10:35:36;98749.31;;;12.36;55.89
75627;BME280;67372;49.404;11.034;2024-03-17T10:38:03;98749.50;;;12.35;55.02
75627;BME280;67372;49.404;11.034;2024-03-17T10:40:30;98746.78;;;12.41;56.44
75627;BME280;67372;49.404;11.034;2024-03-17T10:42:56;98750.19;;;12.62;56.31
75627;BME280;67372;49.404;11.034;2024-03-17T10:45:22;98752.94;;;12.80;56.93
75627;BME280;67372;49.404;11.034;2024-03-17T10:47:49;98748.03;;;13.02;55.71
75627;BME280;67372;49.404;11.034;2024-03-17T10:50:17;98739.00;;;13.28;56.39
75627;BME280;67372;49.404;11.034;2024-03-17T10:52:48;98731.72;;;13.53;53.97
75627;BME280;67372;49.404;11.034;2024-03-17T10:55:20;98720.41;;;13.88;55.30
75627;BME280;67372;49.404;11.034;2024-03-17T10:57:47;98723.81;;;14.13;53.15
75627;BME280;67372;49.404;11.034;2024-03-17T11:00:14;98715.78;;;14.43;55.05
75627;BME280;67372;49.404;11.034;2024-03-17T11:02:40;98716.59;;;14.73;51.84
75627;BME280;67372;49.404;11.034;2024-03-17T11:05:12;98706.09;;;14.84;51.74
75627;BME280;67372;49.404;11.034;2024-03-17T11:07:39;98712.03;;;14.86;49.66
75627;BME280;67372;49.404;11.034;2024-03-17T11:10:05;98715.66;;;14.80;50.68
75627;BME280;67372;49.404;11.034;2024-03-17T11:17:51;98712.06;;;15.09;51.53
75627;BME280;67372;49.404;11.034;2024-03-17T11:20:29;98712.19;;;15.02;48.80
75627;BME280;67372;49.404;11.034;2024-03-17T11:22:56;98718.97;;;15.05;50.62
75627;BME280;67372;49.404;11.034;2024-03-17T11:27:51;98711.84;;;15.11;46.81
75627;BME280;67372;49.404;11.034;2024-03-17T11:39:02;98701.78;;;15.29;47.46
75627;BME280;67372;49.404;11.034;2024-03-17T11:49:29;98684.72;;;14.89;48.05
75627;BME280;67372;49.404;11.034;2024-03-17T11:51:59;98675.28;;;14.98;49.21
75627;BME280;67372;49.404;11.034;2024-03-17T11:54:26;98673.53;;;15.15;48.00
75627;BME280;67372;49.404;11.034;2024-03-17T11:56:53;98679.72;;;15.27;46.85
75627;BME280;67372;49.404;11.034;2024-03-17T11:59:20;98684.84;;;15.29;47.75
75627;BME280;67372;49.404;11.034;2024-03-17T12:01:46;98670.00;;;15.50;48.55
75627;BME280;67372;49.404;11.034;2024-03-17T12:04:15;98666.47;;;15.49;47.62
75627;BME280;67372;49.404;11.034;2024-03-17T12:06:59;98665.44;;;15.62;46.41
75627;BME280;67372;49.404;11.034;2024-03-17T12:09:30;98662.31;;;15.93;46.06
75627;BME280;67372;49.404;11.034;2024-03-17T12:12:05;98654.44;;;16.04;44.87
75627;BME280;67372;49.404;11.034;2024-03-17T12:14:31;98660.13;;;15.79;45.38
75627;BME280;67372;49.404;11.034;2024-03-17T12:17:01;98671.41;;;15.64;45.26
75627;BME280;67372;49.404;11.034;2024-03-17T12:19:27;98664.38;;;15.51;45.76
75627;BME280;67372;49.404;11.034;2024-03-17T12:21:54;98657.69;;;15.54;47.53
75627;BME280;67372;49.404;11.034;2024-03-17T12:24:23;98651.03;;;15.68;47.46
75627;BME280;67372;49.404;11.034;2024-03-17T12:26:50;98645.69;;;15.96;45.93
75627;BME280;67372;49.404;11.034;2024-03-17T12:32:01;98645.19;;;16.00;45.86
75627;BME280;67372;49.404;11.034;2024-03-17T12:34:29;98641.78;;;15.76;46.42
75627;BME280;67372;49.404;11.034;2024-03-17T12:36:55;98639.19;;;15.81;47.13
75627;BME280;67372;49.404;11.034;2024-03-17T12:39:25;98630.94;;;15.99;46.45
75627;BME280;67372;49.404;11.034;2024-03-17T12:42:13;98643.41;;;16.05;45.33
75627;BME280;67372;49.404;11.034;2024-03-17T12:44:46;98635.00;;;16.02;45.37
75627;BME280;67372;49.404;11.034;2024-03-17T12:47:20;98632.97;;;15.92;45.26
75627;BME280;67372;49.404;11.034;2024-03-17T12:52:23;98620.00;;;15.77;45.92
75627;BME280;67372;49.404;11.034;2024-03-17T12:55:00;98619.78;;;15.79;45.51
75627;BME280;67372;49.404;11.034;2024-03-17T12:57:25;98618.38;;;15.76;45.32
75627;BME280;67372;49.404;11.034;2024-03-17T12:59:51;98610.50;;;15.34;46.59
75627;BME280;67372;49.404;11.034;2024-03-17T13:02:16;98604.25;;;15.05;46.63
75627;BME280;67372;49.404;11.034;2024-03-17T13:04:42;98601.56;;;15.05;47.63
75627;BME280;67372;49.404;11.034;2024-03-17T13:07:11;98603.06;;;15.01;45.95
75627;BME280;67372;49.404;11.034;2024-03-17T13:09:37;98614.75;;;14.72;46.95
75627;BME280;67372;49.404;11.034;2024-03-17T13:12:13;98613.94;;;14.71;47.14
75627;BME280;67372;49.404;11.034;2024-03-17T13:14:39;98612.16;;;14.65;48.10
75627;BME280;67372;49.404;11.034;2024-03-17T13:17:06;98601.56;;;14.70;48.46
75627;BME280;67372;49.404;11.034;2024-03-17T13:19:32;98610.78;;;14.74;49.07
75627;BME280;67372;49.404;11.034;2024-03-17T13:21:57;98600.06;;;14.98;47.97
75627;BME280;67372;49.404;11.034;2024-03-17T13:24:23;98598.63;;;15.07;48.22